sensor_id;sensor_type;location;lat;lon;timestamp;pressure;altitude;pressure_sealevel;temperature;humidity
7802;BME280;3945;48.952;9.506;2023-04-06T00:02:05;98186.94;;;1.58;69.86
7802;BME280;3945;48.952;9.506;2023-04-06T00:04:31;98190.03;;;1.62;69.32
7802;BME280;3945;48.952;9.506;2023-04-06T00:06:57;98181.97;;;1.64;69.92
7802;BME280;3945;48.952;9.506;2023-04-06T00:09:24;98190.84;;;1.63;69.86
7802;BME280;3945;48.952;9.506;2023-04-06T00:11:51;98183.16;;;1.61;70.05
7802;BME280;3945;48.952;9.506;2023-04-06T00:14:18;98182.97;;;1.63;69.53
7802;BME280;3945;48.952;9.506;2023-04-06T00:16:44;98181.16;;;1.63;70.08
7802;BME280;3945;48.952;9.506;2023-04-06T00:19:10;98172.66;;;1.61;70.02
7802;BME280;3945;48.952;9.506;2023-04-06T00:21:37;98179.44;;;1.55;70.14
7802;BME280;3945;48.952;9.506;2023-04-06T00:24:04;98176.81;;;1.55;70.41
7802;BME280;3945;48.952;9.506;2023-04-06T00:26:30;98175.50;;;1.51;70.12
7802;BME280;3945;48.952;9.506;2023-04-06T00:28:58;98177.22;;;1.44;69.88
7802;BME280;3945;48.952;9.506;2023-04-06T00:31:24;98167.00;;;1.35;70.31
7802;BME280;3945;48.952;9.506;2023-04-06T00:33:51;98171.97;;;1.30;70.57
7802;BME280;3945;48.952;9.506;2023-04-06T00:36:17;98169.41;;;1.22;70.58
7802;BME280;3945;48.952;9.506;2023-04-06T00:38:43;98171.53;;;1.18;70.61
7802;BME280;3945;48.952;9.506;2023-04-06T00:41:10;98161.88;;;1.18;71.24
7802;BME280;3945;48.952;9.506;2023-04-06T00:43:36;98166.28;;;1.18;71.12
7802;BME280;3945;48.952;9.506;2023-04-06T00:46:04;98163.50;;;1.20;70.05
7802;BME280;3945;48.952;9.506;2023-04-06T00:48:30;98162.97;;;1.24;70.97
7802;BME280;3945;48.952;9.506;2023-04-06T00:50:57;98161.97;;;1.25;70.82
7802;BME280;3945;48.952;9.506;2023-04-06T00:53:24;98153.66;;;1.22;70.46
7802;BME280;3945;48.952;9.506;2023-04-06T00:55:50;98151.06;;;1.22;70.39
7802;BME280;3945;48.952;9.506;2023-04-06T00:58:16;98159.09;;;1.20;70.67
7802;BME280;3945;48.952;9.506;2023-04-06T01:00:43;98154.81;;;1.19;69.92
7802;BME280;3945;48.952;9.506;2023-04-06T01:03:10;98158.91;;;1.22;69.76
7802;BME280;3945;48.952;9.506;2023-04-06T01:05:37;98155.66;;;1.20;70.31
7802;BME280;3945;48.952;9.506;2023-04-06T01:08:05;98157.63;;;1.17;70.52
7802;BME280;3945;48.952;9.506;2023-04-06T01:10:31;98148.13;;;1.16;70.64
7802;BME280;3945;48.952;9.506;2023-04-06T01:12:58;98144.06;;;1.14;70.72
7802;BME280;3945;48.952;9.506;2023-04-06T01:15:24;98153.25;;;1.10;71.16
7802;BME280;3945;48.952;9.506;2023-04-06T01:17:51;98148.81;;;1.10;70.95
7802;BME280;3945;48.952;9.506;2023-04-06T01:20:19;98143.59;;;1.10;71.35
7802;BME280;3945;48.952;9.506;2023-04-06T01:22:47;98144.56;;;1.09;71.29
7802;BME280;3945;48.952;9.506;2023-04-06T01:25:13;98147.19;;;1.09;71.94
7802;BME280;3945;48.952;9.506;2023-04-06T01:27:40;98144.13;;;1.06;71.70
7802;BME280;3945;48.952;9.506;2023-04-06T01:30:06;98139.22;;;1.03;71.45
7802;BME280;3945;48.952;9.506;2023-04-06T01:32:33;98131.91;;;0.98;71.89
7802;BME280;3945;48.952;9.506;2023-04-06T01:34:59;98131.06;;;0.98;72.40
7802;BME280;3945;48.952;9.506;2023-04-06T01:37:26;98130.59;;;0.94;72.52
7802;BME280;3945;48.952;9.506;2023-04-06T01:39:53;98127.97;;;0.94;71.99
7802;BME280;3945;48.952;9.506;2023-04-06T01:42:20;98128.63;;;0.96;72.23
7802;BME280;3945;48.952;9.506;2023-04-06T01:44:46;98131.41;;;0.95;72.27
7802;BME280;3945;48.952;9.506;2023-04-06T01:47:12;98127.38;;;0.92;71.71
7802;BME280;3945;48.952;9.506;2023-04-06T01:49:39;98124.53;;;0.94;71.50
7802;BME280;3945;48.952;9.506;2023-04-06T01:52:06;98125.56;;;0.93;71.44
7802;BME280;3945;48.952;9.506;2023-04-06T01:54:32;98123.94;;;0.92;71.61
7802;BME280;3945;48.952;9.506;2023-04-06T01:57:00;98120.81;;;0.88;71.72
7802;BME280;3945;48.952;9.506;2023-04-06T01:59:26;98116.78;;;0.86;71.85
7802;BME280;3945;48.952;9.506;2023-04-06T02:01:52;98117.38;;;0.88;71.38
7802;BME280;3945;48.952;9.506;2023-04-06T02:04:18;98121.63;;;0.89;71.57
7802;BME280;3945;48.952;9.506;2023-04-06T02:06:46;98123.44;;;0.88;71.55
7802;BME280;3945;48.952;9.506;2023-04-06T02:09:12;98123.81;;;0.85;71.98
7802;BME280;3945;48.952;9.506;2023-04-06T02:11:38;98124.16;;;0.82;71.67
7802;BME280;3945;48.952;9.506;2023-04-06T02:14:06;98128.94;;;0.78;71.43
7802;BME280;3945;48.952;9.506;2023-04-06T02:16:32;98135.97;;;0.78;71.50
7802;BME280;3945;48.952;9.506;2023-04-06T02:18:59;98128.97;;;0.70;72.32
7802;BME280;3945;48.952;9.506;2023-04-06T02:21:25;98121.47;;;0.67;71.79
7802;BME280;3945;48.952;9.506;2023-04-06T02:23:51;98122.44;;;0.66;72.00
7802;BME280;3945;48.952;9.506;2023-04-06T02:26:18;98124.59;;;0.63;72.46
7802;BME280;3945;48.952;9.506;2023-04-06T02:28:45;98124.81;;;0.53;73.17
7802;BME280;3945;48.952;9.506;2023-04-06T02:31:12;98121.78;;;0.42;72.45
7802;BME280;3945;48.952;9.506;2023-04-06T02:33:39;98111.81;;;0.37;73.04
7802;BME280;3945;48.952;9.506;2023-04-06T02:36:06;98124.44;;;0.33;73.08
7802;BME280;3945;48.952;9.506;2023-04-06T02:38:32;98115.59;;;0.34;73.14
7802;BME280;3945;48.952;9.506;2023-04-06T02:40:59;98117.56;;;0.32;73.28
7802;BME280;3945;48.952;9.506;2023-04-06T02:43:25;98114.78;;;0.34;73.22
7802;BME280;3945;48.952;9.506;2023-04-06T02:45:51;98118.22;;;0.34;73.33
7802;BME280;3945;48.952;9.506;2023-04-06T02:48:19;98108.38;;;0.36;73.46
7802;BME280;3945;48.952;9.506;2023-04-06T02:50:45;98111.00;;;0.36;73.63
7802;BME280;3945;48.952;9.506;2023-04-06T02:53:11;98112.81;;;0.36;73.71
7802;BME280;3945;48.952;9.506;2023-04-06T02:55:38;98105.31;;;0.33;73.62
7802;BME280;3945;48.952;9.506;2023-04-06T02:58:04;98106.97;;;0.26;73.91
7802;BME280;3945;48.952;9.506;2023-04-06T03:00:30;98099.66;;;0.21;73.88
7802;BME280;3945;48.952;9.506;2023-04-06T03:02:57;98099.28;;;0.24;74.15
7802;BME280;3945;48.952;9.506;2023-04-06T03:05:24;98108.13;;;0.23;74.35
7802;BME280;3945;48.952;9.506;2023-04-06T03:07:51;98100.09;;;0.25;74.44
7802;BME280;3945;48.952;9.506;2023-04-06T03:10:17;98096.50;;;0.26;74.56
7802;BME280;3945;48.952;9.506;2023-04-06T03:12:43;98099.28;;;0.24;74.83
7802;BME280;3945;48.952;9.506;2023-04-06T03:15:10;98104.53;;;0.24;74.66
7802;BME280;3945;48.952;9.506;2023-04-06T03:17:36;98105.22;;;0.18;74.71
7802;BME280;3945;48.952;9.506;2023-04-06T03:20:03;98099.84;;;0.12;74.48
7802;BME280;3945;48.952;9.506;2023-04-06T03:22:31;98102.47;;;0.12;74.63
7802;BME280;3945;48.952;9.506;2023-04-06T03:24:57;98099.84;;;0.12;74.97
7802;BME280;3945;48.952;9.506;2023-04-06T03:27:24;98099.84;;;0.12;75.34
7802;BME280;3945;48.952;9.506;2023-04-06T03:29:50;98096.56;;;0.10;75.36
7802;BME280;3945;48.952;9.506;2023-04-06T03:32:16;98109.66;;;0.10;75.54
7802;BME280;3945;48.952;9.506;2023-04-06T03:34:43;98104.78;;;0.07;75.97
7802;BME280;3945;48.952;9.506;2023-04-06T03:37:09;98105.09;;;0.04;75.89
7802;BME280;3945;48.952;9.506;2023-04-06T03:39:37;98104.78;;;0.07;76.14
7802;BME280;3945;48.952;9.506;2023-04-06T03:42:03;98111.81;;;0.06;75.99
7802;BME280;3945;48.952;9.506;2023-04-06T03:44:29;98104.59;;;0.08;76.26
7802;BME280;3945;48.952;9.506;2023-04-06T03:46:56;98104.25;;;0.11;76.25
7802;BME280;3945;48.952;9.506;2023-04-06T03:49:23;98108.84;;;0.09;76.63
7802;BME280;3945;48.952;9.506;2023-04-06T03:51:49;98112.13;;;0.03;76.68
7802;BME280;3945;48.952;9.506;2023-04-06T03:54:15;98117.22;;;0.05;76.65
7802;BME280;3945;48.952;9.506;2023-04-06T03:56:43;98124.69;;;0.08;76.66
7802;BME280;3945;48.952;9.506;2023-04-06T03:59:09;98131.56;;;0.09;76.36
7802;BME280;3945;48.952;9.506;2023-04-06T04:01:36;98128.47;;;0.05;76.69
7802;BME280;3945;48.952;9.506;2023-04-06T04:04:02;98123.41;;;0.04;76.22
7802;BME280;3945;48.952;9.506;2023-04-06T04:06:28;98133.88;;;0.04;75.78
7802;BME280;3945;48.952;9.506;2023-04-06T04:08:55;98126.19;;;0.02;75.52
7802;BME280;3945;48.952;9.506;2023-04-06T04:11:21;98128.97;;;0.00;75.48
7802;BME280;3945;48.952;9.506;2023-04-06T04:13:49;98128.34;;;-0.02;75.48
7802;BME280;3945;48.952;9.506;2023-04-06T04:16:15;98125.06;;;-0.04;75.26
7802;BME280;3945;48.952;9.506;2023-04-06T04:18:41;98132.63;;;-0.09;75.37
7802;BME280;3945;48.952;9.506;2023-04-06T04:21:08;98145.03;;;-0.11;75.60
7802;BME280;3945;48.952;9.506;2023-04-06T04:23:35;98136.53;;;-0.13;75.72
7802;BME280;3945;48.952;9.506;2023-04-06T04:26:01;98129.66;;;-0.14;76.16
7802;BME280;3945;48.952;9.506;2023-04-06T04:28:27;98136.69;;;-0.14;75.95
7802;BME280;3945;48.952;9.506;2023-04-06T04:30:55;98132.47;;;-0.15;76.21
7802;BME280;3945;48.952;9.506;2023-04-06T04:33:21;98124.31;;;-0.20;76.14
7802;BME280;3945;48.952;9.506;2023-04-06T04:35:48;98129.06;;;-0.24;76.25
7802;BME280;3945;48.952;9.506;2023-04-06T04:38:14;98134.44;;;-0.25;76.47
7802;BME280;3945;48.952;9.506;2023-04-06T04:40:40;98135.28;;;-0.25;76.12
7802;BME280;3945;48.952;9.506;2023-04-06T04:43:06;98137.91;;;-0.33;76.04
7802;BME280;3945;48.952;9.506;2023-04-06T04:45:33;98143.44;;;-0.36;76.40
7802;BME280;3945;48.952;9.506;2023-04-06T04:48:00;98139.56;;;-0.40;76.28
7802;BME280;3945;48.952;9.506;2023-04-06T04:50:27;98140.53;;;-0.41;76.25
7802;BME280;3945;48.952;9.506;2023-04-06T04:52:53;98129.09;;;-0.40;76.62
7802;BME280;3945;48.952;9.506;2023-04-06T04:55:19;98138.72;;;-0.41;76.76
7802;BME280;3945;48.952;9.506;2023-04-06T04:57:45;98138.41;;;-0.37;77.07
7802;BME280;3945;48.952;9.506;2023-04-06T05:00:12;98149.19;;;-0.41;77.24
7802;BME280;3945;48.952;9.506;2023-04-06T05:02:39;98142.47;;;-0.43;77.63
7802;BME280;3945;48.952;9.506;2023-04-06T05:05:07;98135.00;;;-0.46;77.61
7802;BME280;3945;48.952;9.506;2023-04-06T05:07:33;98142.84;;;-0.46;77.46
7802;BME280;3945;48.952;9.506;2023-04-06T05:10:00;98138.59;;;-0.47;77.21
7802;BME280;3945;48.952;9.506;2023-04-06T05:12:26;98147.91;;;-0.45;77.91
7802;BME280;3945;48.952;9.506;2023-04-06T05:14:53;98149.34;;;-0.42;77.55
7802;BME280;3945;48.952;9.506;2023-04-06T05:17:19;98151.47;;;-0.37;77.77
7802;BME280;3945;48.952;9.506;2023-04-06T05:19:45;98156.72;;;-0.37;77.91
7802;BME280;3945;48.952;9.506;2023-04-06T05:22:13;98155.72;;;-0.36;77.87
7802;BME280;3945;48.952;9.506;2023-04-06T05:24:42;98160.97;;;-0.36;77.63
7802;BME280;3945;48.952;9.506;2023-04-06T05:27:08;98167.31;;;-0.31;77.83
7802;BME280;3945;48.952;9.506;2023-04-06T05:29:35;98163.53;;;-0.28;77.75
7802;BME280;3945;48.952;9.506;2023-04-06T05:32:01;98162.22;;;-0.24;77.67
7802;BME280;3945;48.952;9.506;2023-04-06T05:34:28;98164.84;;;-0.24;77.78
7802;BME280;3945;48.952;9.506;2023-04-06T05:36:54;98166.13;;;-0.20;77.29
7802;BME280;3945;48.952;9.506;2023-04-06T05:39:22;98171.03;;;-0.17;77.35
7802;BME280;3945;48.952;9.506;2023-04-06T05:41:48;98172.03;;;-0.18;77.79
7802;BME280;3945;48.952;9.506;2023-04-06T05:44:15;98184.13;;;-0.17;77.26
7802;BME280;3945;48.952;9.506;2023-04-06T05:46:41;98181.97;;;-0.14;77.11
7802;BME280;3945;48.952;9.506;2023-04-06T05:49:08;98179.03;;;-0.11;77.34
7802;BME280;3945;48.952;9.506;2023-04-06T05:51:34;98182.31;;;-0.09;77.19
7802;BME280;3945;48.952;9.506;2023-04-06T05:54:00;98181.94;;;-0.06;77.13
7802;BME280;3945;48.952;9.506;2023-04-06T05:56:28;98178.22;;;-0.11;76.78
7802;BME280;3945;48.952;9.506;2023-04-06T05:58:55;98184.59;;;-0.14;77.11
7802;BME280;3945;48.952;9.506;2023-04-06T06:01:21;98177.25;;;-0.18;77.31
7802;BME280;3945;48.952;9.506;2023-04-06T06:03:47;98178.06;;;-0.18;77.60
7802;BME280;3945;48.952;9.506;2023-04-06T06:06:14;98173.13;;;-0.05;78.34
7802;BME280;3945;48.952;9.506;2023-04-06T06:08:40;98179.47;;;0.09;78.08
7802;BME280;3945;48.952;9.506;2023-04-06T06:11:06;98181.06;;;0.18;78.24
7802;BME280;3945;48.952;9.506;2023-04-06T06:13:34;98177.59;;;0.34;78.10
7802;BME280;3945;48.952;9.506;2023-04-06T06:16:00;98179.78;;;0.53;78.31
7802;BME280;3945;48.952;9.506;2023-04-06T06:18:30;98182.06;;;0.87;78.26
7802;BME280;3945;48.952;9.506;2023-04-06T06:20:56;98178.19;;;1.29;78.17
7802;BME280;3945;48.952;9.506;2023-04-06T06:23:22;98185.53;;;1.71;75.99
7802;BME280;3945;48.952;9.506;2023-04-06T06:25:49;98182.47;;;2.11;76.29
7802;BME280;3945;48.952;9.506;2023-04-06T06:28:15;98182.94;;;2.59;72.45
7802;BME280;3945;48.952;9.506;2023-04-06T06:30:43;98177.69;;;2.95;72.63
7802;BME280;3945;48.952;9.506;2023-04-06T06:33:09;98178.06;;;3.34;71.50
7802;BME280;3945;48.952;9.506;2023-04-06T06:35:35;98179.34;;;3.66;69.97
7802;BME280;3945;48.952;9.506;2023-04-06T06:38:02;98181.25;;;4.07;68.90
7802;BME280;3945;48.952;9.506;2023-04-06T06:40:28;98186.75;;;4.46;67.73
7802;BME280;3945;48.952;9.506;2023-04-06T06:42:54;98182.44;;;4.86;67.15
7802;BME280;3945;48.952;9.506;2023-04-06T06:45:21;98182.56;;;5.26;66.40
7802;BME280;3945;48.952;9.506;2023-04-06T06:47:48;98184.84;;;5.62;65.14
7802;BME280;3945;48.952;9.506;2023-04-06T06:50:15;98178.34;;;6.04;63.07
7802;BME280;3945;48.952;9.506;2023-04-06T06:52:41;98183.75;;;6.35;62.85
7802;BME280;3945;48.952;9.506;2023-04-06T06:55:08;98186.72;;;6.65;62.20
7802;BME280;3945;48.952;9.506;2023-04-06T06:57:34;98178.41;;;6.99;60.63
7802;BME280;3945;48.952;9.506;2023-04-06T07:00:01;98178.25;;;7.32;58.80
7802;BME280;3945;48.952;9.506;2023-04-06T07:02:27;98174.53;;;7.65;58.33
7802;BME280;3945;48.952;9.506;2023-04-06T07:04:55;98180.00;;;7.95;57.46
7802;BME280;3945;48.952;9.506;2023-04-06T07:07:21;98182.09;;;8.29;56.71
7802;BME280;3945;48.952;9.506;2023-04-06T07:09:48;98179.78;;;8.57;55.16
7802;BME280;3945;48.952;9.506;2023-04-06T07:12:14;98187.31;;;8.79;54.58
7802;BME280;3945;48.952;9.506;2023-04-06T07:14:41;98179.44;;;9.02;53.56
7802;BME280;3945;48.952;9.506;2023-04-06T07:17:07;98191.06;;;9.19;53.24
7802;BME280;3945;48.952;9.506;2023-04-06T07:19:34;98187.69;;;9.42;52.67
7802;BME280;3945;48.952;9.506;2023-04-06T07:22:02;98175.13;;;9.61;51.40
7802;BME280;3945;48.952;9.506;2023-04-06T07:24:29;98185.69;;;9.91;51.00
7802;BME280;3945;48.952;9.506;2023-04-06T07:26:56;98183.06;;;10.26;50.22
7802;BME280;3945;48.952;9.506;2023-04-06T07:29:23;98180.16;;;10.62;49.65
7802;BME280;3945;48.952;9.506;2023-04-06T07:31:49;98188.66;;;10.87;49.51
7802;BME280;3945;48.952;9.506;2023-04-06T07:34:15;98186.41;;;11.08;48.81
7802;BME280;3945;48.952;9.506;2023-04-06T07:36:42;98187.81;;;11.27;49.29
7802;BME280;3945;48.952;9.506;2023-04-06T07:39:09;98185.28;;;11.49;48.29
7802;BME280;3945;48.952;9.506;2023-04-06T07:41:36;98186.66;;;11.68;47.35
7802;BME280;3945;48.952;9.506;2023-04-06T07:44:02;98180.16;;;11.92;46.04
7802;BME280;3945;48.952;9.506;2023-04-06T07:46:29;98183.47;;;12.16;47.64
7802;BME280;3945;48.952;9.506;2023-04-06T07:48:55;98182.78;;;12.42;44.25
7802;BME280;3945;48.952;9.506;2023-04-06T07:51:22;98178.09;;;12.71;42.28
7802;BME280;3945;48.952;9.506;2023-04-06T07:53:49;98177.09;;;12.99;40.98
7802;BME280;3945;48.952;9.506;2023-04-06T07:56:17;98177.09;;;13.21;39.98
7802;BME280;3945;48.952;9.506;2023-04-06T07:58:43;98176.97;;;13.33;38.48
7802;BME280;3945;48.952;9.506;2023-04-06T08:01:10;98175.22;;;13.48;39.32
7802;BME280;3945;48.952;9.506;2023-04-06T08:03:36;98170.78;;;13.59;38.82
7802;BME280;3945;48.952;9.506;2023-04-06T08:06:03;98173.59;;;13.74;38.41
7802;BME280;3945;48.952;9.506;2023-04-06T08:08:29;98168.66;;;13.93;37.79
7802;BME280;3945;48.952;9.506;2023-04-06T08:10:55;98171.66;;;14.01;38.06
7802;BME280;3945;48.952;9.506;2023-04-06T08:13:23;98169.00;;;14.01;36.06
7802;BME280;3945;48.952;9.506;2023-04-06T08:15:50;98172.84;;;14.16;37.81
7802;BME280;3945;48.952;9.506;2023-04-06T08:18:16;98172.13;;;14.30;37.81
7802;BME280;3945;48.952;9.506;2023-04-06T08:20:42;98169.03;;;14.49;36.64
7802;BME280;3945;48.952;9.506;2023-04-06T08:23:09;98173.66;;;14.63;35.60
7802;BME280;3945;48.952;9.506;2023-04-06T08:25:36;98175.59;;;14.73;33.61
7802;BME280;3945;48.952;9.506;2023-04-06T08:28:02;98172.56;;;14.54;35.09
7802;BME280;3945;48.952;9.506;2023-04-06T08:30:30;98174.22;;;14.65;36.24
7802;BME280;3945;48.952;9.506;2023-04-06T08:32:57;98179.34;;;14.77;35.62
7802;BME280;3945;48.952;9.506;2023-04-06T08:35:23;98176.50;;;14.94;35.57
7802;BME280;3945;48.952;9.506;2023-04-06T08:37:49;98174.16;;;15.12;35.33
7802;BME280;3945;48.952;9.506;2023-04-06T08:40:16;98174.16;;;15.17;36.75
7802;BME280;3945;48.952;9.506;2023-04-06T08:42:44;98180.03;;;15.09;35.93
7802;BME280;3945;48.952;9.506;2023-04-06T08:45:10;98172.53;;;15.11;36.20
7802;BME280;3945;48.952;9.506;2023-04-06T08:47:38;98179.53;;;15.28;35.50
7802;BME280;3945;48.952;9.506;2023-04-06T08:50:06;98172.88;;;15.40;34.90
7802;BME280;3945;48.952;9.506;2023-04-06T08:52:33;98169.97;;;15.57;35.16
7802;BME280;3945;48.952;9.506;2023-04-06T08:54:59;98166.78;;;15.70;35.30
7802;BME280;3945;48.952;9.506;2023-04-06T08:57:26;98170.25;;;15.71;34.22
7802;BME280;3945;48.952;9.506;2023-04-06T08:59:52;98167.03;;;15.74;32.88
7802;BME280;3945;48.952;9.506;2023-04-06T09:02:20;98164.88;;;15.86;33.87
7802;BME280;3945;48.952;9.506;2023-04-06T09:04:48;98163.84;;;15.92;34.62
7802;BME280;3945;48.952;9.506;2023-04-06T09:07:15;98162.72;;;15.93;33.85
7802;BME280;3945;48.952;9.506;2023-04-06T09:09:41;98159.00;;;15.99;34.35
7802;BME280;3945;48.952;9.506;2023-04-06T09:12:21;98158.72;;;16.11;32.20
7802;BME280;3945;48.952;9.506;2023-04-06T09:14:47;98148.47;;;16.23;32.75
7802;BME280;3945;48.952;9.506;2023-04-06T09:17:19;98158.41;;;16.32;34.01
7802;BME280;3945;48.952;9.506;2023-04-06T09:19:47;98154.34;;;16.45;31.70
7802;BME280;3945;48.952;9.506;2023-04-06T09:22:13;98158.94;;;16.34;33.48
7802;BME280;3945;48.952;9.506;2023-04-06T09:24:41;98156.25;;;16.39;31.71
7802;BME280;3945;48.952;9.506;2023-04-06T09:27:07;98151.91;;;16.44;32.43
7802;BME280;3945;48.952;9.506;2023-04-06T09:29:34;98150.84;;;16.45;33.01
7802;BME280;3945;48.952;9.506;2023-04-06T09:32:02;98155.16;;;16.46;31.66
7802;BME280;3945;48.952;9.506;2023-04-06T09:34:28;98148.94;;;16.55;30.89
7802;BME280;3945;48.952;9.506;2023-04-06T09:36:56;98149.72;;;16.66;30.39
7802;BME280;3945;48.952;9.506;2023-04-06T09:39:23;98150.25;;;16.73;32.41
7802;BME280;3945;48.952;9.506;2023-04-06T09:41:51;98151.28;;;16.82;32.31
7802;BME280;3945;48.952;9.506;2023-04-06T09:44:17;98149.16;;;16.84;30.26
7802;BME280;3945;48.952;9.506;2023-04-06T09:46:44;98147.19;;;16.95;30.93
7802;BME280;3945;48.952;9.506;2023-04-06T09:49:11;98141.59;;;16.91;29.59
7802;BME280;3945;48.952;9.506;2023-04-06T09:51:38;98142.63;;;16.95;31.46
7802;BME280;3945;48.952;9.506;2023-04-06T09:54:06;98138.72;;;16.57;28.88
7802;BME280;3945;48.952;9.506;2023-04-06T09:56:36;98138.72;;;16.67;29.41
7802;BME280;3945;48.952;9.506;2023-04-06T09:59:05;98129.88;;;16.62;28.82
7802;BME280;3945;48.952;9.506;2023-04-06T10:01:34;98137.13;;;16.51;29.46
7802;BME280;3945;48.952;9.506;2023-04-06T10:04:04;98140.88;;;16.70;30.99
7802;BME280;3945;48.952;9.506;2023-04-06T10:06:33;98133.03;;;16.74;30.00
7802;BME280;3945;48.952;9.506;2023-04-06T10:09:02;98133.81;;;16.85;32.40
7802;BME280;3945;48.952;9.506;2023-04-06T10:11:31;98131.38;;;16.88;30.96
7802;BME280;3945;48.952;9.506;2023-04-06T10:13:57;98134.53;;;17.00;31.31
7802;BME280;3945;48.952;9.506;2023-04-06T10:16:24;98126.75;;;16.99;32.55
7802;BME280;3945;48.952;9.506;2023-04-06T10:18:54;98130.03;;;16.91;29.98
7802;BME280;3945;48.952;9.506;2023-04-06T10:21:23;98127.84;;;16.98;31.50
7802;BME280;3945;48.952;9.506;2023-04-06T10:23:52;98130.69;;;17.16;30.08
7802;BME280;3945;48.952;9.506;2023-04-06T10:26:20;98128.97;;;17.36;30.07
7802;BME280;3945;48.952;9.506;2023-04-06T10:28:48;98128.91;;;17.41;29.97
7802;BME280;3945;48.952;9.506;2023-04-06T10:31:23;98124.66;;;17.35;31.09
7802;BME280;3945;48.952;9.506;2023-04-06T10:33:53;98129.06;;;17.65;31.88
7802;BME280;3945;48.952;9.506;2023-04-06T10:36:21;98128.53;;;17.63;29.30
7802;BME280;3945;48.952;9.506;2023-04-06T10:38:53;98133.94;;;17.58;29.43
7802;BME280;3945;48.952;9.506;2023-04-06T10:41:19;98133.31;;;17.71;30.77
7802;BME280;3945;48.952;9.506;2023-04-06T10:43:46;98134.53;;;17.83;28.82
7802;BME280;3945;48.952;9.506;2023-04-06T10:46:25;98124.66;;;18.03;30.84
7802;BME280;3945;48.952;9.506;2023-04-06T10:48:52;98125.03;;;18.20;29.55
7802;BME280;3945;48.952;9.506;2023-04-06T10:51:18;98128.53;;;18.20;30.09
7802;BME280;3945;48.952;9.506;2023-04-06T10:53:45;98126.88;;;17.95;28.96
7802;BME280;3945;48.952;9.506;2023-04-06T10:56:14;98117.63;;;18.07;30.56
7802;BME280;3945;48.952;9.506;2023-04-06T10:58:43;98122.22;;;18.06;30.42
7802;BME280;3945;48.952;9.506;2023-04-06T11:01:10;98124.56;;;18.13;30.31
7802;BME280;3945;48.952;9.506;2023-04-06T11:03:43;98119.72;;;18.15;29.68
7802;BME280;3945;48.952;9.506;2023-04-06T11:06:10;98113.63;;;18.04;28.41
7802;BME280;3945;48.952;9.506;2023-04-06T11:08:37;98114.69;;;18.03;29.93
7802;BME280;3945;48.952;9.506;2023-04-06T11:11:05;98114.97;;;18.02;29.29
7802;BME280;3945;48.952;9.506;2023-04-06T11:13:36;98109.97;;;18.19;31.04
7802;BME280;3945;48.952;9.506;2023-04-06T11:16:03;98107.28;;;18.43;30.66
7802;BME280;3945;48.952;9.506;2023-04-06T11:18:30;98101.41;;;18.64;31.00
7802;BME280;3945;48.952;9.506;2023-04-06T11:20:58;98096.72;;;18.94;29.79
7802;BME280;3945;48.952;9.506;2023-04-06T11:23:25;98095.09;;;18.93;28.85
7802;BME280;3945;48.952;9.506;2023-04-06T11:25:51;98090.88;;;19.05;30.29
7802;BME280;3945;48.952;9.506;2023-04-06T11:28:17;98099.69;;;18.92;28.14
7802;BME280;3945;48.952;9.506;2023-04-06T11:30:44;98091.63;;;18.68;29.33
7802;BME280;3945;48.952;9.506;2023-04-06T11:33:11;98091.19;;;18.61;31.33
7802;BME280;3945;48.952;9.506;2023-04-06T11:35:37;98090.38;;;18.61;28.81
7802;BME280;3945;48.952;9.506;2023-04-06T11:38:05;98085.84;;;18.80;29.67
7802;BME280;3945;48.952;9.506;2023-04-06T11:40:31;98091.59;;;18.92;30.07
7802;BME280;3945;48.952;9.506;2023-04-06T11:42:58;98082.09;;;18.95;28.29
7802;BME280;3945;48.952;9.506;2023-04-06T11:45:24;98075.69;;;19.09;29.93
7802;BME280;3945;48.952;9.506;2023-04-06T11:47:57;98077.91;;;19.07;29.39
7802;BME280;3945;48.952;9.506;2023-04-06T11:50:24;98071.44;;;19.08;28.84
7802;BME280;3945;48.952;9.506;2023-04-06T11:52:57;98063.09;;;19.05;27.63
7802;BME280;3945;48.952;9.506;2023-04-06T11:55:25;98062.47;;;18.94;27.53
7802;BME280;3945;48.952;9.506;2023-04-06T11:57:51;98061.22;;;18.87;28.10
7802;BME280;3945;48.952;9.506;2023-04-06T12:00:18;98060.47;;;18.81;28.42
7802;BME280;3945;48.952;9.506;2023-04-06T12:02:45;98062.34;;;18.81;28.09
7802;BME280;3945;48.952;9.506;2023-04-06T12:05:11;98059.09;;;18.84;29.57
7802;BME280;3945;48.952;9.506;2023-04-06T12:07:38;98055.47;;;18.93;28.82
7802;BME280;3945;48.952;9.506;2023-04-06T12:10:04;98050.75;;;19.18;28.20
7802;BME280;3945;48.952;9.506;2023-04-06T12:12:32;98041.44;;;19.29;28.22
7802;BME280;3945;48.952;9.506;2023-04-06T12:14:58;98040.97;;;19.40;29.58
7802;BME280;3945;48.952;9.506;2023-04-06T12:17:25;98038.56;;;19.58;30.51
7802;BME280;3945;48.952;9.506;2023-04-06T12:19:51;98037.47;;;19.40;28.94
7802;BME280;3945;48.952;9.506;2023-04-06T12:22:17;98030.78;;;19.37;27.68
7802;BME280;3945;48.952;9.506;2023-04-06T12:24:44;98038.00;;;19.23;28.19
7802;BME280;3945;48.952;9.506;2023-04-06T12:27:10;98047.72;;;19.05;28.45
7802;BME280;3945;48.952;9.506;2023-04-06T12:29:38;98034.81;;;19.02;27.04
7802;BME280;3945;48.952;9.506;2023-04-06T12:32:04;98036.31;;;19.27;29.61
7802;BME280;3945;48.952;9.506;2023-04-06T12:34:31;98031.59;;;19.19;27.12
7802;BME280;3945;48.952;9.506;2023-04-06T12:36:57;98039.53;;;19.10;25.98
7802;BME280;3945;48.952;9.506;2023-04-06T12:39:24;98037.34;;;18.75;25.62
7802;BME280;3945;48.952;9.506;2023-04-06T12:41:52;98035.31;;;18.67;27.18
7802;BME280;3945;48.952;9.506;2023-04-06T12:44:18;98041.94;;;18.56;26.96
7802;BME280;3945;48.952;9.506;2023-04-06T12:46:46;98028.00;;;18.25;25.74
7802;BME280;3945;48.952;9.506;2023-04-06T12:49:12;98036.22;;;18.15;28.18
7802;BME280;3945;48.952;9.506;2023-04-06T12:51:38;98033.22;;;18.16;28.78
7802;BME280;3945;48.952;9.506;2023-04-06T12:54:04;98028.00;;;18.25;28.16
7802;BME280;3945;48.952;9.506;2023-04-06T12:56:31;98029.03;;;18.29;28.29
7802;BME280;3945;48.952;9.506;2023-04-06T12:58:57;98027.47;;;18.47;27.14
7802;BME280;3945;48.952;9.506;2023-04-06T13:01:24;98030.22;;;18.65;28.35
7802;BME280;3945;48.952;9.506;2023-04-06T13:03:54;98022.25;;;18.74;28.39
7802;BME280;3945;48.952;9.506;2023-04-06T13:06:29;98017.84;;;18.83;28.08
7802;BME280;3945;48.952;9.506;2023-04-06T13:08:55;98022.41;;;18.83;26.19
7802;BME280;3945;48.952;9.506;2023-04-06T13:11:21;98016.75;;;18.84;26.60
7802;BME280;3945;48.952;9.506;2023-04-06T13:13:48;98012.81;;;18.77;27.29
7802;BME280;3945;48.952;9.506;2023-04-06T13:16:15;98010.03;;;18.82;27.73
7802;BME280;3945;48.952;9.506;2023-04-06T13:18:41;98010.56;;;18.65;26.04
7802;BME280;3945;48.952;9.506;2023-04-06T13:21:08;98005.16;;;18.65;25.90
7802;BME280;3945;48.952;9.506;2023-04-06T13:23:35;98006.41;;;18.73;27.17
7802;BME280;3945;48.952;9.506;2023-04-06T13:26:02;98002.25;;;18.80;26.84